world map with SPN marked

SPN - Airport

This information may not be accurate or current and is not valid for navigation or flight planning. No warranty of fitness for any purpose is made or implied.

flag of Northern Mariana Islandsflag of United States

Donate via PayPal

Additional information is available on the NEW Great Circle Mapper

Location
City:  Saipan, Northern Mariana Islands, United States
Near (Alt.):Obyan
Name:Saipan International (Francisco C. Ada)
ICAO / IATA:PGSN / SPN
FAA:GSN

Details
Type:Airport (Part 139 Class I)
Use:Public/Civil
Latitude:15°07'13"N (15.120255)
Longitude:145°43'48"E (145.729984)
Datum:WGS 1984
Elevation:211 ft (64 m)
Runways:2
Longest:8700 × 200 ft (2652 × 61 m)

Time
Timezone:UTC+10
Local Time:

Weather
METAR:PGSN  311854Z 16007KT 7SM -RA SCT018 BKN036 26/24 A2978 RMK AO2 RAB54 SLP104 T02560244 PNO $
TAF:PGSN  311733Z 3118/0118 10010KT P6SM VCSH SCT015 BKN040 BKN120= TAF PGUM 311733Z 3118/0124 VRB05KT P6SM VCSH SCT015 BKN040 BKN120
FM010000 23006KT P6SM VCSH SCT015 SCT040 BKN120

Related Locations
Nearby:
Farthest:BVM: 12138 mi / 19533 km
Belmonte, BA, BR

Find:

   beyond  
but within

Other Information
Maps:
Links:
Sources:

  

Airport Diagram

Airport diagram for SPN

Airport diagram PDF from FAA

 


Great Circle Mapper   Great Circle Mapper
Great Circle Mapper FAQ   Great Circle Mapper FAQ
  Karl's Home Page
KLSē   KLSē Home
   GC on Facebook
Airlines of the World   Airlines of the World
Donate via PayPal


Copyright © 2004-2014, Karl L. Swartz. All rights reserved.
All trademarks mentioned herein belong to their respective owners.

Please see credits for attribution and copyright information.

Karl Swartz <karl@kls2.com>
  Powered by FreeBSD
Valid HTML 4.01!
Labeled with ICRA
hCard Microformat
Geo Microformat